sensor_id;sensor_type;location;lat;lon;timestamp;pressure;altitude;pressure_sealevel;temperature;humidity
65832;BME280;52593;42.648;23.332;2023-02-11T00:00:08;96175.84;;;-3.97;64.03
65832;BME280;52593;42.648;23.332;2023-02-11T00:02:33;96185.50;;;-3.99;64.12
65832;BME280;52593;42.648;23.332;2023-02-11T00:04:59;96178.72;;;-4.04;64.23
65832;BME280;52593;42.648;23.332;2023-02-11T00:07:29;96187.44;;;-4.04;64.24
65832;BME280;52593;42.648;23.332;2023-02-11T00:09:54;96184.81;;;-4.04;63.61
65832;BME280;52593;42.648;23.332;2023-02-11T00:12:20;96181.56;;;-4.10;63.87
65832;BME280;52593;42.648;23.332;2023-02-11T00:14:46;96176.28;;;-4.09;63.72
65832;BME280;52593;42.648;23.332;2023-02-11T00:17:11;96175.47;;;-4.11;63.55
65832;BME280;52593;42.648;23.332;2023-02-11T00:19:37;96188.81;;;-4.19;63.87
65832;BME280;52593;42.648;23.332;2023-02-11T00:22:02;96192.38;;;-4.21;63.93
65832;BME280;52593;42.648;23.332;2023-02-11T00:24:27;96189.03;;;-4.25;64.57
65832;BME280;52593;42.648;23.332;2023-02-11T00:26:54;96181.47;;;-4.33;64.43
65832;BME280;52593;42.648;23.332;2023-02-11T00:29:20;96185.97;;;-4.36;64.60
65832;BME280;52593;42.648;23.332;2023-02-11T00:31:45;96188.47;;;-4.33;64.31
65832;BME280;52593;42.648;23.332;2023-02-11T00:34:10;96195.44;;;-4.34;64.42
65832;BME280;52593;42.648;23.332;2023-02-11T00:36:36;96188.00;;;-4.46;64.91
65832;BME280;52593;42.648;23.332;2023-02-11T00:39:01;96177.63;;;-4.48;65.09
65832;BME280;52593;42.648;23.332;2023-02-11T00:41:27;96175.06;;;-4.49;64.85
65832;BME280;52593;42.648;23.332;2023-02-11T00:43:53;96182.88;;;-4.49;64.96
65832;BME280;52593;42.648;23.332;2023-02-11T00:46:18;96180.38;;;-4.52;66.45
65832;BME280;52593;42.648;23.332;2023-02-11T00:48:44;96182.09;;;-4.51;65.13
65832;BME280;52593;42.648;23.332;2023-02-11T00:51:10;96172.44;;;-4.49;64.29
65832;BME280;52593;42.648;23.332;2023-02-11T00:53:35;96171.53;;;-4.48;64.37
65832;BME280;52593;42.648;23.332;2023-02-11T00:56:01;96181.06;;;-4.45;64.49
65832;BME280;52593;42.648;23.332;2023-02-11T00:58:27;96182.78;;;-4.46;63.91
65832;BME280;52593;42.648;23.332;2023-02-11T01:00:53;96174.94;;;-4.46;64.09
65832;BME280;52593;42.648;23.332;2023-02-11T01:03:19;96179.34;;;-4.46;64.08
65832;BME280;52593;42.648;23.332;2023-02-11T01:05:45;96174.09;;;-4.46;64.64
65832;BME280;52593;42.648;23.332;2023-02-11T01:08:10;96168.94;;;-4.48;63.86
65832;BME280;52593;42.648;23.332;2023-02-11T01:10:35;96171.59;;;-4.50;63.71
65832;BME280;52593;42.648;23.332;2023-02-11T01:13:01;96171.66;;;-4.51;63.47
65832;BME280;52593;42.648;23.332;2023-02-11T01:15:27;96170.91;;;-4.55;63.91
65832;BME280;52593;42.648;23.332;2023-02-11T01:17:52;96157.25;;;-4.63;63.69
65832;BME280;52593;42.648;23.332;2023-02-11T01:20:22;96173.84;;;-4.66;64.09
65832;BME280;52593;42.648;23.332;2023-02-11T01:22:47;96166.06;;;-4.67;63.81
65832;BME280;52593;42.648;23.332;2023-02-11T01:25:12;96162.91;;;-4.77;64.29
65832;BME280;52593;42.648;23.332;2023-02-11T01:27:39;96160.56;;;-4.85;64.59
65832;BME280;52593;42.648;23.332;2023-02-11T01:30:06;96157.22;;;-4.88;64.51
65832;BME280;52593;42.648;23.332;2023-02-11T01:32:33;96156.38;;;-4.90;64.81
65832;BME280;52593;42.648;23.332;2023-02-11T01:34:58;96164.28;;;-4.92;65.54
65832;BME280;52593;42.648;23.332;2023-02-11T01:37:24;96152.88;;;-4.89;65.39
65832;BME280;52593;42.648;23.332;2023-02-11T01:39:49;96153.09;;;-4.95;65.24
65832;BME280;52593;42.648;23.332;2023-02-11T01:42:16;96168.59;;;-4.91;65.68
65832;BME280;52593;42.648;23.332;2023-02-11T01:44:42;96162.69;;;-4.96;64.94
65832;BME280;52593;42.648;23.332;2023-02-11T01:47:08;96148.06;;;-5.02;65.70
65832;BME280;52593;42.648;23.332;2023-02-11T01:49:36;96128.44;;;-5.13;65.96
65832;BME280;52593;42.648;23.332;2023-02-11T01:52:08;96154.97;;;-4.99;65.86
65832;BME280;52593;42.648;23.332;2023-02-11T01:54:43;96148.06;;;-5.02;67.09
65832;BME280;52593;42.648;23.332;2023-02-11T01:57:31;96163.44;;;-4.92;66.32
65832;BME280;52593;42.648;23.332;2023-02-11T02:00:09;96149.59;;;-4.94;65.82
65832;BME280;52593;42.648;23.332;2023-02-11T02:08:10;96156.69;;;-4.99;65.34
65832;BME280;52593;42.648;23.332;2023-02-11T02:10:41;96147.97;;;-4.98;65.66
65832;BME280;52593;42.648;23.332;2023-02-11T02:13:07;96148.06;;;-5.02;65.28
65832;BME280;52593;42.648;23.332;2023-02-11T02:15:34;96148.16;;;-5.05;65.90
65832;BME280;52593;42.648;23.332;2023-02-11T02:18:02;96148.25;;;-5.08;66.00
65832;BME280;52593;42.648;23.332;2023-02-11T02:23:29;96157.28;;;-5.18;65.72
65832;BME280;52593;42.648;23.332;2023-02-11T02:26:07;96149.56;;;-5.21;66.05
65832;BME280;52593;42.648;23.332;2023-02-11T02:33:54;96154.06;;;-5.26;66.12
65832;BME280;52593;42.648;23.332;2023-02-11T02:36:39;96153.19;;;-5.25;65.57
65832;BME280;52593;42.648;23.332;2023-02-11T02:39:12;96152.50;;;-5.32;65.56
65832;BME280;52593;42.648;23.332;2023-02-11T02:41:40;96150.69;;;-5.30;65.69
65832;BME280;52593;42.648;23.332;2023-02-11T02:44:07;96130.88;;;-5.35;65.19
65832;BME280;52593;42.648;23.332;2023-02-11T02:46:33;96138.63;;;-5.32;64.63
65832;BME280;52593;42.648;23.332;2023-02-11T02:48:59;96141.28;;;-5.34;65.17
65832;BME280;52593;42.648;23.332;2023-02-11T03:00:12;96153.25;;;-5.28;64.25
65832;BME280;52593;42.648;23.332;2023-02-11T03:05:22;96149.09;;;-5.34;64.17
65832;BME280;52593;42.648;23.332;2023-02-11T03:10:30;96147.56;;;-5.41;64.77
65832;BME280;52593;42.648;23.332;2023-02-11T03:12:57;96157.03;;;-5.37;64.68
65832;BME280;52593;42.648;23.332;2023-02-11T03:15:26;96147.72;;;-5.46;64.67
65832;BME280;52593;42.648;23.332;2023-02-11T03:17:55;96151.13;;;-5.44;64.89
65832;BME280;52593;42.648;23.332;2023-02-11T03:20:23;96153.72;;;-5.44;65.18
65832;BME280;52593;42.648;23.332;2023-02-11T03:22:56;96145.09;;;-5.46;65.35
65832;BME280;52593;42.648;23.332;2023-02-11T03:25:28;96154.66;;;-5.45;65.13
65832;BME280;52593;42.648;23.332;2023-02-11T03:28:28;96146.72;;;-5.42;65.04
65832;BME280;52593;42.648;23.332;2023-02-11T03:33:54;96144.16;;;-5.43;64.53
65832;BME280;52593;42.648;23.332;2023-02-11T03:36:45;96147.66;;;-5.44;65.21
65832;BME280;52593;42.648;23.332;2023-02-11T03:39:18;96139.09;;;-5.48;65.19
65832;BME280;52593;42.648;23.332;2023-02-11T03:41:46;96140.69;;;-5.44;65.13
65832;BME280;52593;42.648;23.332;2023-02-11T03:44:13;96139.78;;;-5.43;65.27
65832;BME280;52593;42.648;23.332;2023-02-11T03:46:43;96144.22;;;-5.45;65.65
65832;BME280;52593;42.648;23.332;2023-02-11T03:49:14;96143.19;;;-5.41;65.68
65832;BME280;52593;42.648;23.332;2023-02-11T03:51:41;96136.38;;;-5.45;65.79
65832;BME280;52593;42.648;23.332;2023-02-11T03:54:12;96142.41;;;-5.43;66.77
65832;BME280;52593;42.648;23.332;2023-02-11T03:56:43;96137.28;;;-5.46;66.01
65832;BME280;52593;42.648;23.332;2023-02-11T03:59:13;96142.44;;;-5.44;66.39
65832;BME280;52593;42.648;23.332;2023-02-11T04:01:38;96133.88;;;-5.48;66.42
65832;BME280;52593;42.648;23.332;2023-02-11T04:04:04;96146.09;;;-5.50;66.17
65832;BME280;52593;42.648;23.332;2023-02-11T04:06:29;96139.31;;;-5.56;66.14
65832;BME280;52593;42.648;23.332;2023-02-11T04:08:54;96142.69;;;-5.52;66.25
65832;BME280;52593;42.648;23.332;2023-02-11T04:11:20;96140.16;;;-5.55;65.54
65832;BME280;52593;42.648;23.332;2023-02-11T04:13:46;96143.75;;;-5.59;65.95
65832;BME280;52593;42.648;23.332;2023-02-11T04:16:11;96143.06;;;-5.64;65.87
65832;BME280;52593;42.648;23.332;2023-02-11T04:18:37;96145.72;;;-5.66;65.96
65832;BME280;52593;42.648;23.332;2023-02-11T04:21:02;96134.66;;;-5.74;65.73
65832;BME280;52593;42.648;23.332;2023-02-11T04:23:27;96152.75;;;-5.68;66.23
65832;BME280;52593;42.648;23.332;2023-02-11T04:25:53;96137.94;;;-5.67;66.65
65832;BME280;52593;42.648;23.332;2023-02-11T04:28:18;96143.16;;;-5.67;66.39
65832;BME280;52593;42.648;23.332;2023-02-11T04:30:43;96135.50;;;-5.74;66.20
65832;BME280;52593;42.648;23.332;2023-02-11T04:33:09;96133.84;;;-5.76;66.64
65832;BME280;52593;42.648;23.332;2023-02-11T04:35:34;96137.47;;;-5.80;66.63
65832;BME280;52593;42.648;23.332;2023-02-11T04:38:00;96132.25;;;-5.80;67.56
65832;BME280;52593;42.648;23.332;2023-02-11T04:40:25;96127.91;;;-5.81;67.17
65832;BME280;52593;42.648;23.332;2023-02-11T04:42:50;96122.84;;;-5.86;67.83
65832;BME280;52593;42.648;23.332;2023-02-11T04:45:16;96119.25;;;-5.82;67.55
65832;BME280;52593;42.648;23.332;2023-02-11T04:47:41;96118.44;;;-5.84;67.72
65832;BME280;52593;42.648;23.332;2023-02-11T04:50:07;96136.81;;;-5.88;68.23
65832;BME280;52593;42.648;23.332;2023-02-11T04:52:32;96129.34;;;-5.99;68.25
65832;BME280;52593;42.648;23.332;2023-02-11T04:54:57;96135.53;;;-6.03;69.38
65832;BME280;52593;42.648;23.332;2023-02-11T04:57:23;96138.09;;;-6.02;69.54
65832;BME280;52593;42.648;23.332;2023-02-11T04:59:48;96125.09;;;-6.03;70.06
65832;BME280;52593;42.648;23.332;2023-02-11T05:02:13;96124.63;;;-6.16;70.45
65832;BME280;52593;42.648;23.332;2023-02-11T05:04:39;96136.53;;;-6.07;70.92
65832;BME280;52593;42.648;23.332;2023-02-11T05:07:04;96115.13;;;-5.89;69.18
65832;BME280;52593;42.648;23.332;2023-02-11T05:09:29;96122.84;;;-5.86;68.25
65832;BME280;52593;42.648;23.332;2023-02-11T05:11:55;96117.84;;;-5.94;67.71
65832;BME280;52593;42.648;23.332;2023-02-11T05:14:20;96118.78;;;-5.96;68.76
65832;BME280;52593;42.648;23.332;2023-02-11T05:16:45;96107.38;;;-5.92;68.80
65832;BME280;52593;42.648;23.332;2023-02-11T05:19:11;96125.50;;;-5.87;69.34
65832;BME280;52593;42.648;23.332;2023-02-11T05:21:36;96112.41;;;-5.86;68.15
65832;BME280;52593;42.648;23.332;2023-02-11T05:24:02;96109.50;;;-6.05;69.22
65832;BME280;52593;42.648;23.332;2023-02-11T05:26:27;96120.75;;;-6.03;69.54
65832;BME280;52593;42.648;23.332;2023-02-11T05:28:53;96126.53;;;-5.93;68.77
65832;BME280;52593;42.648;23.332;2023-02-11T05:31:18;96129.00;;;-5.88;68.07
65832;BME280;52593;42.648;23.332;2023-02-11T05:33:43;96124.81;;;-5.94;68.64
65832;BME280;52593;42.648;23.332;2023-02-11T05:36:11;96119.88;;;-6.03;69.41
65832;BME280;52593;42.648;23.332;2023-02-11T05:38:38;96112.03;;;-6.02;68.83
65832;BME280;52593;42.648;23.332;2023-02-11T05:41:04;96123.59;;;-6.11;70.21
65832;BME280;52593;42.648;23.332;2023-02-11T05:43:30;96125.53;;;-6.19;70.66
65832;BME280;52593;42.648;23.332;2023-02-11T05:45:56;96128.09;;;-6.17;70.54
65832;BME280;52593;42.648;23.332;2023-02-11T05:48:21;96118.59;;;-6.18;69.83
65832;BME280;52593;42.648;23.332;2023-02-11T05:50:47;96120.16;;;-6.13;70.46
65832;BME280;52593;42.648;23.332;2023-02-11T05:53:12;96131.59;;;-6.17;70.18
65832;BME280;52593;42.648;23.332;2023-02-11T05:55:38;96124.47;;;-6.41;70.84
65832;BME280;52593;42.648;23.332;2023-02-11T05:58:03;96136.47;;;-6.37;71.37
65832;BME280;52593;42.648;23.332;2023-02-11T06:00:29;96126.34;;;-6.48;71.39
65832;BME280;52593;42.648;23.332;2023-02-11T06:02:54;96143.03;;;-6.54;72.02
65832;BME280;52593;42.648;23.332;2023-02-11T06:05:20;96142.31;;;-6.60;72.91
65832;BME280;52593;42.648;23.332;2023-02-11T06:07:45;96137.94;;;-6.58;73.86
65832;BME280;52593;42.648;23.332;2023-02-11T06:10:11;96146.91;;;-6.37;73.89
65832;BME280;52593;42.648;23.332;2023-02-11T06:12:37;96134.91;;;-6.43;73.39
65832;BME280;52593;42.648;23.332;2023-02-11T06:15:04;96136.34;;;-6.33;72.92
65832;BME280;52593;42.648;23.332;2023-02-11T06:17:29;96138.03;;;-6.30;72.83
65832;BME280;52593;42.648;23.332;2023-02-11T06:19:59;96147.41;;;-6.23;72.99
65832;BME280;52593;42.648;23.332;2023-02-11T06:22:25;96142.69;;;-6.10;72.43
65832;BME280;52593;42.648;23.332;2023-02-11T06:24:51;96141.03;;;-6.14;72.47
65832;BME280;52593;42.648;23.332;2023-02-11T06:27:16;96146.53;;;-6.23;72.76
65832;BME280;52593;42.648;23.332;2023-02-11T06:29:43;96142.91;;;-6.18;72.67
65832;BME280;52593;42.648;23.332;2023-02-11T06:32:09;96147.81;;;-6.07;72.24
65832;BME280;52593;42.648;23.332;2023-02-11T06:34:34;96137.34;;;-6.05;71.81
65832;BME280;52593;42.648;23.332;2023-02-11T06:36:59;96140.66;;;-6.00;72.03
65832;BME280;52593;42.648;23.332;2023-02-11T06:39:25;96140.38;;;-5.91;72.23
65832;BME280;52593;42.648;23.332;2023-02-11T06:41:50;96145.59;;;-5.91;71.71
65832;BME280;52593;42.648;23.332;2023-02-11T06:44:16;96139.56;;;-5.93;71.82
65832;BME280;52593;42.648;23.332;2023-02-11T06:46:41;96138.00;;;-5.99;72.06
65832;BME280;52593;42.648;23.332;2023-02-11T06:49:06;96142.06;;;-5.90;72.27
65832;BME280;52593;42.648;23.332;2023-02-11T06:51:32;96148.91;;;-5.86;71.82
65832;BME280;52593;42.648;23.332;2023-02-11T06:53:57;96146.03;;;-5.77;71.48
65832;BME280;52593;42.648;23.332;2023-02-11T06:56:23;96145.75;;;-5.67;71.36
65832;BME280;52593;42.648;23.332;2023-02-11T06:58:52;96154.50;;;-5.70;70.50
65832;BME280;52593;42.648;23.332;2023-02-11T07:01:20;96149.34;;;-5.71;70.57
65832;BME280;52593;42.648;23.332;2023-02-11T07:03:46;96142.16;;;-5.63;71.21
65832;BME280;52593;42.648;23.332;2023-02-11T07:06:14;96146.66;;;-5.68;71.31
65832;BME280;52593;42.648;23.332;2023-02-11T07:08:40;96154.94;;;-5.54;71.11
65832;BME280;52593;42.648;23.332;2023-02-11T07:11:18;96153.63;;;-5.41;70.96
65832;BME280;52593;42.648;23.332;2023-02-11T07:13:44;96154.25;;;-5.32;70.46
65832;BME280;52593;42.648;23.332;2023-02-11T07:16:13;96149.75;;;-5.27;70.02
65832;BME280;52593;42.648;23.332;2023-02-11T07:18:38;96147.88;;;-5.22;69.77
65832;BME280;52593;42.648;23.332;2023-02-11T07:21:09;96133.00;;;-5.20;70.00
65832;BME280;52593;42.648;23.332;2023-02-11T07:23:35;96137.13;;;-5.13;69.45
65832;BME280;52593;42.648;23.332;2023-02-11T07:26:05;96134.13;;;-5.00;69.23
65832;BME280;52593;42.648;23.332;2023-02-11T07:28:33;96137.00;;;-4.83;67.91
65832;BME280;52593;42.648;23.332;2023-02-11T07:31:12;96131.63;;;-4.78;67.13
65832;BME280;52593;42.648;23.332;2023-02-11T07:33:39;96127.97;;;-4.73;67.99
65832;BME280;52593;42.648;23.332;2023-02-11T07:36:06;96113.94;;;-4.70;67.50
65832;BME280;52593;42.648;23.332;2023-02-11T07:38:33;96123.28;;;-4.63;66.62
65832;BME280;52593;42.648;23.332;2023-02-11T07:41:04;96122.66;;;-4.70;65.67
65832;BME280;52593;42.648;23.332;2023-02-11T07:43:30;96103.34;;;-4.66;65.36
65832;BME280;52593;42.648;23.332;2023-02-11T07:45:56;96118.72;;;-4.56;65.67
65832;BME280;52593;42.648;23.332;2023-02-11T07:48:21;96116.09;;;-4.56;64.68
65832;BME280;52593;42.648;23.332;2023-02-11T07:50:47;96103.50;;;-4.45;64.15
65832;BME280;52593;42.648;23.332;2023-02-11T07:53:12;96102.50;;;-4.41;64.14
65832;BME280;52593;42.648;23.332;2023-02-11T07:55:38;96095.34;;;-4.36;64.32
65832;BME280;52593;42.648;23.332;2023-02-11T07:58:03;96111.19;;;-4.40;63.34
65832;BME280;52593;42.648;23.332;2023-02-11T08:00:29;96101.63;;;-4.41;64.24
65832;BME280;52593;42.648;23.332;2023-02-11T08:02:56;96120.34;;;-4.28;63.86
65832;BME280;52593;42.648;23.332;2023-02-11T08:05:21;96093.63;;;-4.37;63.17
65832;BME280;52593;42.648;23.332;2023-02-11T08:07:50;96103.75;;;-4.27;63.59
65832;BME280;52593;42.648;23.332;2023-02-11T08:10:16;96081.72;;;-4.20;64.62
65832;BME280;52593;42.648;23.332;2023-02-11T08:12:41;96082.28;;;-4.12;62.91
65832;BME280;52593;42.648;23.332;2023-02-11T08:15:07;96088.75;;;-3.99;63.02
65832;BME280;52593;42.648;23.332;2023-02-11T08:17:34;96086.44;;;-3.83;61.58
65832;BME280;52593;42.648;23.332;2023-02-11T08:20:00;96094.34;;;-3.84;60.07
65832;BME280;52593;42.648;23.332;2023-02-11T08:22:25;96087.16;;;-3.79;61.86
65832;BME280;52593;42.648;23.332;2023-02-11T08:24:51;96088.56;;;-3.70;59.76
65832;BME280;52593;42.648;23.332;2023-02-11T08:27:16;96091.06;;;-3.67;60.33
65832;BME280;52593;42.648;23.332;2023-02-11T08:29:41;96090.38;;;-3.72;60.33
65832;BME280;52593;42.648;23.332;2023-02-11T08:32:07;96089.78;;;-3.79;60.29
65832;BME280;52593;42.648;23.332;2023-02-11T08:34:32;96089.66;;;-3.76;59.70
65832;BME280;52593;42.648;23.332;2023-02-11T08:36:58;96086.69;;;-3.67;60.45
65832;BME280;52593;42.648;23.332;2023-02-11T08:39:23;96087.75;;;-3.49;60.65
65832;BME280;52593;42.648;23.332;2023-02-11T08:41:51;96096.72;;;-3.34;60.56
65832;BME280;52593;42.648;23.332;2023-02-11T08:44:18;96096.50;;;-3.28;61.04
65832;BME280;52593;42.648;23.332;2023-02-11T08:46:44;96091.44;;;-3.32;61.56
65832;BME280;52593;42.648;23.332;2023-02-11T08:49:09;96092.59;;;-3.39;60.04
65832;BME280;52593;42.648;23.332;2023-02-11T08:51:35;96098.31;;;-3.30;60.65
65832;BME280;52593;42.648;23.332;2023-02-11T08:54:01;96083.69;;;-3.35;60.71
65832;BME280;52593;42.648;23.332;2023-02-11T08:56:27;96086.94;;;-3.29;61.12
65832;BME280;52593;42.648;23.332;2023-02-11T08:58:53;96100.50;;;-3.19;62.19
65832;BME280;52593;42.648;23.332;2023-02-11T09:01:21;96106.63;;;-3.18;61.73
65832;BME280;52593;42.648;23.332;2023-02-11T09:03:47;96095.72;;;-3.08;61.15
65832;BME280;52593;42.648;23.332;2023-02-11T09:06:13;96087.78;;;-3.06;61.44
65832;BME280;52593;42.648;23.332;2023-02-11T09:08:41;96098.25;;;-3.06;62.63
65832;BME280;52593;42.648;23.332;2023-02-11T09:11:09;96089.16;;;-2.97;62.84
65832;BME280;52593;42.648;23.332;2023-02-11T09:13:35;96093.16;;;-2.89;62.26
65832;BME280;52593;42.648;23.332;2023-02-11T09:16:03;96093.03;;;-2.85;62.14
65832;BME280;52593;42.648;23.332;2023-02-11T09:18:29;96087.16;;;-2.91;63.94
65832;BME280;52593;42.648;23.332;2023-02-11T09:21:05;96077.25;;;-2.84;60.77
65832;BME280;52593;42.648;23.332;2023-02-11T09:23:31;96067.09;;;-2.71;60.76
65832;BME280;52593;42.648;23.332;2023-02-11T09:28:53;96065.53;;;-2.34;58.38
65832;BME280;52593;42.648;23.332;2023-02-11T09:31:21;96073.53;;;-2.18;57.80
65832;BME280;52593;42.648;23.332;2023-02-11T09:33:49;96062.22;;;-2.19;57.77
65832;BME280;52593;42.648;23.332;2023-02-11T09:36:26;96063.41;;;-2.07;58.95
65832;BME280;52593;42.648;23.332;2023-02-11T09:38:54;96065.22;;;-1.88;56.75
65832;BME280;52593;42.648;23.332;2023-02-11T09:43:52;96045.50;;;-1.59;56.13
65832;BME280;52593;42.648;23.332;2023-02-11T09:46:19;96047.91;;;-1.54;55.05
65832;BME280;52593;42.648;23.332;2023-02-11T09:48:47;96043.81;;;-1.42;55.02
65832;BME280;52593;42.648;23.332;2023-02-11T09:51:31;96038.31;;;-1.55;54.76
65832;BME280;52593;42.648;23.332;2023-02-11T09:54:03;96042.66;;;-1.54;56.16
65832;BME280;52593;42.648;23.332;2023-02-11T09:56:30;96032.78;;;-1.49;58.02
65832;BME280;52593;42.648;23.332;2023-02-11T09:58:55;96038.34;;;-1.38;54.48
65832;BME280;52593;42.648;23.332;2023-02-11T10:01:46;96018.81;;;-1.50;53.99
65832;BME280;52593;42.648;23.332;2023-02-11T10:21:42;95984.19;;;-0.53;49.38
65832;BME280;52593;42.648;23.332;2023-02-11T10:24:13;95983.19;;;-0.01;62.88
65832;BME280;52593;42.648;23.332;2023-02-11T10:26:40;95959.16;;;0.37;48.36
65832;BME280;52593;42.648;23.332;2023-02-11T10:29:25;95962.09;;;0.47;47.05
65832;BME280;52593;42.648;23.332;2023-02-11T10:31:56;95942.00;;;0.14;46.88
65832;BME280;52593;42.648;23.332;2023-02-11T10:34:22;95939.91;;;0.05;47.75
65832;BME280;52593;42.648;23.332;2023-02-11T10:36:48;95932.66;;;0.24;47.63
65832;BME280;52593;42.648;23.332;2023-02-11T10:39:18;95920.44;;;0.53;46.29
65832;BME280;52593;42.648;23.332;2023-02-11T10:41:53;95919.13;;;0.77;45.49
65832;BME280;52593;42.648;23.332;2023-02-11T10:44:31;95908.06;;;0.56;43.81
65832;BME280;52593;42.648;23.332;2023-02-11T10:47:02;95909.25;;;0.50;44.54
65832;BME280;52593;42.648;23.332;2023-02-11T10:49:41;95901.91;;;0.85;44.02
65832;BME280;52593;42.648;23.332;2023-02-11T10:52:12;95905.19;;;0.75;43.10
65832;BME280;52593;42.648;23.332;2023-02-11T10:54:38;95895.78;;;0.70;43.93
65832;BME280;52593;42.648;23.332;2023-02-11T10:57:03;95885.31;;;1.14;44.10
65832;BME280;52593;42.648;23.332;2023-02-11T10:59:30;95888.03;;;1.27;43.91
65832;BME280;52593;42.648;23.332;2023-02-11T11:02:16;95880.03;;;1.42;43.65
65832;BME280;52593;42.648;23.332;2023-02-11T11:04:46;95883.31;;;1.60;42.44
65832;BME280;52593;42.648;23.332;2023-02-11T11:07:19;95875.59;;;1.14;40.99
65832;BME280;52593;42.648;23.332;2023-02-11T11:14:55;95876.19;;;1.34;42.79
65832;BME280;52593;42.648;23.332;2023-02-11T11:17:21;95861.59;;;1.42;42.80
65832;BME280;52593;42.648;23.332;2023-02-11T11:19:46;95868.25;;;1.63;41.69
65832;BME280;52593;42.648;23.332;2023-02-11T11:22:20;95864.50;;;1.38;42.03
65832;BME280;52593;42.648;23.332;2023-02-11T11:24:47;95865.16;;;1.41;42.85
65832;BME280;52593;42.648;23.332;2023-02-11T11:27:22;95867.31;;;1.49;43.00
65832;BME280;52593;42.648;23.332;2023-02-11T11:29:52;95868.31;;;1.75;42.44
65832;BME280;52593;42.648;23.332;2023-02-11T11:32:45;95864.28;;;1.55;42.65
65832;BME280;52593;42.648;23.332;2023-02-11T11:35:26;95852.22;;;1.51;43.78
65832;BME280;52593;42.648;23.332;2023-02-11T11:37:57;95857.75;;;1.75;43.34
65832;BME280;52593;42.648;23.332;2023-02-11T11:40:27;95845.63;;;2.00;42.25
65832;BME280;52593;42.648;23.332;2023-02-11T11:45:36;95841.34;;;2.12;40.95
65832;BME280;52593;42.648;23.332;2023-02-11T11:51:00;95848.13;;;1.89;42.09
65832;BME280;52593;42.648;23.332;2023-02-11T11:56:27;95825.69;;;2.09;42.36
65832;BME280;52593;42.648;23.332;2023-02-11T11:58:54;95828.69;;;2.17;42.39
65832;BME280;52593;42.648;23.332;2023-02-11T12:21:35;95789.53;;;2.24;42.57
65832;BME280;52593;42.648;23.332;2023-02-11T12:44:19;95741.06;;;2.63;37.24
65832;BME280;52593;42.648;23.332;2023-02-11T12:47:05;95749.84;;;2.64;37.42
65832;BME280;52593;42.648;23.332;2023-02-11T12:49:47;95753.31;;;2.64;36.64
65832;BME280;52593;42.648;23.332;2023-02-11T12:52:22;95752.78;;;2.46;36.89
65832;BME280;52593;42.648;23.332;2023-02-11T12:55:13;95747.16;;;2.51;37.95
65832;BME280;52593;42.648;23.332;2023-02-11T12:57:43;95740.22;;;2.63;38.43
65832;BME280;52593;42.648;23.332;2023-02-11T13:00:23;95738.31;;;2.52;39.91
65832;BME280;52593;42.648;23.332;2023-02-11T13:05:45;95733.75;;;2.80;39.09
65832;BME280;52593;42.648;23.332;2023-02-11T13:08:18;95735.56;;;2.79;38.67
65832;BME280;52593;42.648;23.332;2023-02-11T13:10:53;95727.53;;;2.55;39.02
65832;BME280;52593;42.648;23.332;2023-02-11T13:13:45;95719.28;;;2.85;38.98
65832;BME280;52593;42.648;23.332;2023-02-11T13:16:46;95722.78;;;3.23;38.40
65832;BME280;52593;42.648;23.332;2023-02-11T13:24:16;95700.19;;;6.91;32.31
65832;BME280;52593;42.648;23.332;2023-02-11T13:32:14;95707.28;;;6.17;31.93
65832;BME280;52593;42.648;23.332;2023-02-11T13:37:12;95705.50;;;6.06;32.59
65832;BME280;52593;42.648;23.332;2023-02-11T13:40:04;95703.31;;;6.54;31.58
65832;BME280;52593;42.648;23.332;2023-02-11T13:42:32;95707.56;;;5.59;32.70
65832;BME280;52593;42.648;23.332;2023-02-11T13:44:58;95698.19;;;5.32;32.59
65832;BME280;52593;42.648;23.332;2023-02-11T13:49:55;95684.47;;;7.19;30.44
65832;BME280;52593;42.648;23.332;2023-02-11T13:52:25;95678.69;;;7.13;30.41
65832;BME280;52593;42.648;23.332;2023-02-11T13:54:53;95686.16;;;8.19;29.94
65832;BME280;52593;42.648;23.332;2023-02-11T13:59:50;95674.50;;;8.59;27.63
65832;BME280;52593;42.648;23.332;2023-02-11T14:16:13;95670.25;;;7.59;27.62
65832;BME280;52593;42.648;23.332;2023-02-11T14:21:33;95655.88;;;10.24;25.96
65832;BME280;52593;42.648;23.332;2023-02-11T14:29:15;95662.28;;;9.59;25.77
65832;BME280;52593;42.648;23.332;2023-02-11T14:32:02;95655.19;;;9.13;26.47
65832;BME280;52593;42.648;23.332;2023-02-11T14:37:44;95654.38;;;8.74;28.17
65832;BME280;52593;42.648;23.332;2023-02-11T14:40:37;95665.06;;;7.47;29.65
65832;BME280;52593;42.648;23.332;2023-02-11T14:43:13;95670.03;;;6.90;30.94
65832;BME280;52593;42.648;23.332;2023-02-11T14:45:43;95663.75;;;6.18;31.69
65832;BME280;52593;42.648;23.332;2023-02-11T14:48:15;95653.63;;;4.92;33.34
65832;BME280;52593;42.648;23.332;2023-02-11T14:50:47;95679.69;;;4.18;35.58
65832;BME280;52593;42.648;23.332;2023-02-11T14:53:17;95670.97;;;3.69;35.95
65832;BME280;52593;42.648;23.332;2023-02-11T14:55:46;95672.41;;;3.25;36.98
65832;BME280;52593;42.648;23.332;2023-02-11T14:58:15;95681.66;;;2.82;38.11
65832;BME280;52593;42.648;23.332;2023-02-11T15:00:59;95669.59;;;2.52;39.10
65832;BME280;52593;42.648;23.332;2023-02-11T15:05:55;95664.34;;;2.13;40.32
65832;BME280;52593;42.648;23.332;2023-02-11T15:08:22;95666.88;;;2.02;40.34
65832;BME280;52593;42.648;23.332;2023-02-11T15:10:48;95667.88;;;1.87;40.66
65832;BME280;52593;42.648;23.332;2023-02-11T15:13:17;95673.13;;;1.74;41.27
65832;BME280;52593;42.648;23.332;2023-02-11T15:15:44;95660.75;;;1.62;41.67
65832;BME280;52593;42.648;23.332;2023-02-11T15:18:17;95664.53;;;1.57;41.94
65832;BME280;52593;42.648;23.332;2023-02-11T15:20:47;95650.38;;;1.46;42.16
65832;BME280;52593;42.648;23.332;2023-02-11T15:23:20;95653.22;;;1.42;42.62
65832;BME280;52593;42.648;23.332;2023-02-11T15:25:47;95644.75;;;1.37;43.10
65832;BME280;52593;42.648;23.332;2023-02-11T15:28:24;95647.97;;;1.28;43.05
65832;BME280;52593;42.648;23.332;2023-02-11T15:31:04;95641.41;;;1.21;43.24
65832;BME280;52593;42.648;23.332;2023-02-11T15:33:36;95639.16;;;1.15;43.42
65832;BME280;52593;42.648;23.332;2023-02-11T15:36:02;95643.16;;;1.08;43.37